Bethesda, United Kingdom
Current Conditions -  °F | °C
As of 12:50 PM on Wednesday 22 Oct 2014 (Local Time) from EGOV Reporting Station
Light Rain Light Rain  
Wind Chill: 54°   Ceiling: 5000
Heat Index: 54°   Visibility: 6mi
Dew Point: 50°   Wind: 20mph
Humidity: 88%   Direction: 230°SW
Pressure: 30.24"   Gusts: NA
Location:  53.17°N, 4.08°W
Report Text: EGOV 221150Z 23017KT 9999 -RA FEW014 SCT017 OVC050 12/10 Q1024 WHT BECMG NSW FEW018 BLU
Loading
Personal Weather Stations






























Interactive Weather Map
Tropical Storm Tracking
New forecast layout! Learn more

10-Day Weather Forecast

Advertisements
Track Severe Weather on mobile